Time;durP1;ratioP1;P1;durP2;ratioP2;P2;SDS_P1;SDS_P2;PMS_P1;PMS_P2;Temp;Humidity;BMP_temperature;BMP_pressure;BME280_temperature;BME280_humidity;BME280_pressure;Samples;Min_cycle;Max_cycle;Signal;HPM_P1;HPM_P2
2023/04/19 00:01:19;;;;;;;15.73;7.72;;;;;;;-144.73;95.80;54395.38;4989445;28;20065;-69
2023/04/19 00:03:44;;;;;;;20.25;7.63;;;;;;;-144.73;95.64;54399.50;5004833;28;20024;-70
2023/04/19 00:06:13;;;;;;;17.42;8.63;;;;;;;-144.73;96.45;54374.84;4987596;28;20037;-70
2023/04/19 00:08:38;;;;;;;23.27;8.82;;;;;;;-144.73;96.72;54381.00;4996160;28;20026;-69
2023/04/19 00:11:04;;;;;;;15.93;7.95;;;;;;;-144.73;97.59;54407.69;4989305;28;20095;-70
2023/04/19 00:13:29;;;;;;;18.33;8.60;;;;;;;-144.73;97.70;54432.31;5018356;28;20025;-69
2023/04/19 00:15:54;;;;;;;18.25;8.50;;;;;;;-144.73;98.67;54428.22;4989391;28;20073;-69
2023/04/19 00:18:20;;;;;;;18.10;8.50;;;;;;;-144.73;98.64;54452.84;5018235;28;20079;-68
2023/04/19 00:20:45;;;;;;;27.05;9.10;;;;;;;-144.73;98.92;54440.53;5010753;28;20037;-70
2023/04/19 00:23:10;;;;;;;25.80;10.10;;;;;;;-144.73;99.01;54387.19;4998152;28;20048;-69
2023/04/19 00:25:36;;;;;;;19.00;8.13;;;;;;;-144.73;98.91;54383.06;5005263;28;20497;-68
2023/04/19 00:28:02;;;;;;;20.60;7.95;;;;;;;-144.73;98.82;54411.81;5007522;28;20036;-69
2023/04/19 00:30:28;;;;;;;22.92;8.05;;;;;;;-144.73;98.28;54415.91;4986108;28;20038;-69
2023/04/19 00:32:53;;;;;;;20.10;7.90;;;;;;;-144.73;97.87;54436.44;4987929;28;20026;-69
2023/04/19 00:35:21;;;;;;;19.48;8.82;;;;;;;-144.73;98.40;54411.81;5004673;28;20042;-70
2023/04/19 00:37:47;;;;;;;17.08;8.18;;;;;;;-144.73;98.08;54428.22;5006311;28;20122;-68
2023/04/19 00:40:13;;;;;;;17.25;7.82;;;;;;;-144.73;98.49;54411.81;5013728;28;20112;-69
2023/04/19 00:42:38;;;;;;;16.80;7.22;;;;;;;-144.73;98.48;54407.69;5027552;28;20038;-69
2023/04/19 00:45:04;;;;;;;16.60;7.97;;;;;;;-144.73;98.50;54368.69;4992541;28;20049;-69
2023/04/19 00:47:29;;;;;;;15.60;7.32;;;;;;;-144.73;98.00;54395.38;5011989;28;20021;-68
2023/04/19 00:49:55;;;;;;;17.23;6.65;;;;;;;-144.73;98.46;54411.81;4996570;28;20099;-69
2023/04/19 00:52:21;;;;;;;15.80;7.78;;;;;;;-144.73;97.97;54407.69;4997109;28;20024;-71
2023/04/19 00:54:47;;;;;;;17.63;7.85;;;;;;;-144.73;98.43;54407.69;5009316;28;20026;-71
2023/04/19 00:57:14;;;;;;;16.23;7.05;;;;;;;-144.73;96.99;54374.84;4995530;28;20024;-69
2023/04/19 00:59:39;;;;;;;13.68;6.45;;;;;;;-144.73;97.42;54407.69;4985932;28;20108;-70
2023/04/19 01:02:06;;;;;;;13.05;5.95;;;;;;;-144.73;96.79;54426.16;4985730;28;20098;-69
2023/04/19 01:04:32;;;;;;;25.23;6.97;;;;;;;-144.73;95.89;54358.44;4986264;28;20408;-69
2023/04/19 01:06:57;;;;;;;10.93;5.95;;;;;;;-144.73;96.30;54424.13;5001802;28;20040;-69
2023/04/19 01:09:23;;;;;;;14.68;6.07;;;;;;;-144.73;95.14;54417.97;5004078;28;20018;-70
2023/04/19 01:11:49;;;;;;;17.08;6.28;;;;;;;-144.73;94.33;54424.13;4985327;28;20026;-69
2023/04/19 01:14:15;;;;;;;14.63;6.07;;;;;;;-144.73;94.44;54411.81;4986712;28;20022;-68
2023/04/19 01:16:40;;;;;;;13.50;6.15;;;;;;;-144.73;94.30;54417.97;4986137;28;20087;-70
2023/04/19 01:19:06;;;;;;;12.38;5.40;;;;;;;-144.73;93.69;54424.13;4988183;28;20022;-70
2023/04/19 01:21:31;;;;;;;14.80;5.55;;;;;;;-144.73;94.37;54420.00;4990203;28;20034;-69
2023/04/19 01:23:56;;;;;;;11.88;5.03;;;;;;;-144.73;94.35;54370.75;4992997;28;20427;-69
2023/04/19 01:26:22;;;;;;;13.15;5.93;;;;;;;-144.73;93.79;54399.50;5001314;28;20557;-68
2023/04/19 01:28:47;;;;;;;14.95;6.22;;;;;;;-144.73;94.00;54411.81;5007360;28;20631;-69
2023/04/19 01:31:12;;;;;;;13.35;5.55;;;;;;;-144.73;94.12;54407.69;4984336;28;20049;-68
2023/04/19 01:33:38;;;;;;;9.35;5.43;;;;;;;-144.73;94.14;54407.69;5002349;28;20034;-70
2023/04/19 01:36:03;;;;;;;14.35;5.80;;;;;;;-144.73;94.26;54432.31;5017930;28;20036;-69
2023/04/19 01:38:29;;;;;;;17.00;5.80;;;;;;;-144.73;93.79;54440.53;4983836;28;20117;-69
2023/04/19 01:40:56;;;;;;;11.68;5.40;;;;;;;-144.73;93.79;54440.53;4984584;28;20037;-70
2023/04/19 01:43:21;;;;;;;9.25;5.15;;;;;;;-144.73;93.32;54432.31;5001071;28;20053;-70
2023/04/19 01:45:47;;;;;;;13.65;5.68;;;;;;;-144.73;93.28;54395.38;5002824;28;20064;-70
2023/04/19 01:48:12;;;;;;;10.18;4.88;;;;;;;-144.73;93.45;54399.50;4988389;28;20025;-70
2023/04/19 01:50:37;;;;;;;18.48;6.20;;;;;;;-144.73;92.55;54424.13;4990345;28;20042;-70
2023/04/19 01:53:03;;;;;;;24.02;5.95;;;;;;;-144.73;93.30;54385.13;5014273;28;20021;-70
2023/04/19 01:55:31;;;;;;;10.60;5.10;;;;;;;-144.73;93.48;54383.06;4989014;28;20124;-70
2023/04/19 01:57:56;;;;;;;10.77;5.13;;;;;;;-144.73;93.84;54440.53;4990815;28;20469;-70
2023/04/19 02:00:22;;;;;;;14.55;6.15;;;;;;;-144.73;93.75;54432.31;5012746;28;20040;-70
2023/04/19 02:02:47;;;;;;;9.98;5.03;;;;;;;-144.73;93.59;54411.81;4988944;28;20027;-70
2023/04/19 02:05:13;;;;;;;12.23;6.32;;;;;;;-144.73;95.74;54432.31;5005140;28;20030;-70
2023/04/19 02:07:38;;;;;;;14.65;5.32;;;;;;;-144.73;97.07;54440.53;5024960;28;20068;-69
2023/04/19 02:10:04;;;;;;;15.93;5.75;;;;;;;-144.73;96.56;54399.50;5015440;28;20417;-70
2023/04/19 02:12:31;;;;;;;9.80;5.53;;;;;;;-144.73;96.93;54358.44;4989072;28;20022;-70
2023/04/19 02:14:58;;;;;;;16.15;5.45;;;;;;;-144.73;97.52;54436.44;4993907;28;20109;-69
2023/04/19 02:17:23;;;;;;;25.73;6.15;;;;;;;-144.73;97.05;54391.28;4988311;28;20033;-70
2023/04/19 02:19:49;;;;;;;14.85;5.95;;;;;;;-144.73;97.54;54432.31;5014194;28;20029;-70
2023/04/19 02:22:14;;;;;;;10.45;5.43;;;;;;;-144.73;97.88;54407.69;5028220;28;20075;-70
2023/04/19 02:24:39;;;;;;;11.80;6.05;;;;;;;-144.73;99.73;54407.69;5012850;28;20026;-70
2023/04/19 02:27:05;;;;;;;13.90;7.57;;;;;;;-144.73;100.00;54411.81;4989705;28;20033;-69
2023/04/19 02:29:31;;;;;;;11.35;5.88;;;;;;;-144.73;100.00;54415.91;5008947;28;20025;-70
2023/04/19 02:31:57;;;;;;;14.68;6.47;;;;;;;-144.73;99.62;54432.31;5008562;28;20025;-70
2023/04/19 02:34:22;;;;;;;20.35;6.70;;;;;;;-144.73;100.00;54413.84;4987766;28;20022;-69
2023/04/19 02:36:47;;;;;;;20.10;7.47;;;;;;;-144.73;100.00;54440.53;4990379;28;20072;-70
2023/04/19 02:39:13;;;;;;;19.48;6.88;;;;;;;-144.73;100.00;54385.13;4992782;28;20108;-69
2023/04/19 02:41:38;;;;;;;17.35;6.28;;;;;;;-144.73;100.00;54446.69;4988504;28;20047;-70
2023/04/19 02:44:04;;;;;;;15.93;5.85;;;;;;;-144.73;100.00;54432.31;5011381;28;20025;-70
2023/04/19 02:46:29;;;;;;;20.20;6.60;;;;;;;-144.73;100.00;54428.22;4991319;28;20038;-69
2023/04/19 02:48:54;;;;;;;15.13;6.30;;;;;;;-144.73;100.00;54461.06;5009461;28;20029;-72
2023/04/19 02:51:20;;;;;;;17.02;5.95;;;;;;;-144.73;100.00;54424.13;5016502;28;20041;-71
2023/04/19 02:53:45;;;;;;;14.00;6.22;;;;;;;-144.73;100.00;54399.50;5013108;28;20022;-72
2023/04/19 02:56:10;;;;;;;17.27;6.65;;;;;;;-144.73;100.00;54420.00;4993001;28;20029;-71
2023/04/19 02:58:36;;;;;;;13.77;6.55;;;;;;;-144.73;100.00;54415.91;4990508;28;20026;-72
2023/04/19 03:01:01;;;;;;;15.27;6.38;;;;;;;-144.73;100.00;54409.75;4990940;28;20129;-72
2023/04/19 03:03:26;;;;;;;14.95;6.25;;;;;;;-144.73;100.00;54407.69;5001640;28;20053;-72
2023/04/19 03:05:52;;;;;;;15.25;6.47;;;;;;;-144.73;100.00;54438.50;5006246;28;20041;-72
2023/04/19 03:08:17;;;;;;;17.23;6.20;;;;;;;-144.73;100.00;54461.06;5008485;28;20033;-72
2023/04/19 03:10:42;;;;;;;20.38;6.93;;;;;;;-144.73;100.00;54415.91;5021245;28;20037;-71
2023/04/19 03:13:08;;;;;;;13.07;6.05;;;;;;;-144.73;100.00;54424.13;5015339;28;20019;-71
2023/04/19 03:15:33;;;;;;;14.95;5.55;;;;;;;-144.73;100.00;54428.22;4996528;28;20060;-71
2023/04/19 03:17:58;;;;;;;18.95;6.43;;;;;;;-144.73;100.00;54395.38;4989031;28;20022;-71
2023/04/19 03:20:25;;;;;;;12.75;5.50;;;;;;;-144.73;100.00;54415.91;4984680;28;20101;-71
2023/04/19 03:22:50;;;;;;;12.57;5.97;;;;;;;-144.73;100.00;54452.84;4988715;28;20053;-71
2023/04/19 03:25:16;;;;;;;18.27;5.82;;;;;;;-144.73;100.00;54436.44;5001343;28;20034;-72
2023/04/19 03:27:44;;;;;;;10.05;5.65;;;;;;;-144.73;100.00;54407.69;4987240;28;20092;-71
2023/04/19 03:30:10;;;;;;;17.17;5.85;;;;;;;-144.73;100.00;54387.19;5003398;28;20044;-72
2023/04/19 03:32:36;;;;;;;14.48;5.15;;;;;;;-144.73;100.00;54428.22;5003483;28;20041;-74
2023/04/19 03:35:01;;;;;;;14.13;5.45;;;;;;;-144.73;100.00;54424.13;4987100;28;20157;-72
2023/04/19 03:37:26;;;;;;;15.07;5.32;;;;;;;-144.73;100.00;54395.38;5004596;28;20040;-72
2023/04/19 03:39:51;;;;;;;11.52;5.28;;;;;;;-144.73;100.00;54411.81;5014524;28;20056;-71
2023/04/19 03:42:17;;;;;;;9.23;5.20;;;;;;;-144.73;100.00;54415.91;5009273;28;20104;-72
2023/04/19 03:44:42;;;;;;;20.88;6.00;;;;;;;-144.73;100.00;54407.69;5010138;28;20021;-71
2023/04/19 03:47:07;;;;;;;17.33;5.53;;;;;;;-144.73;100.00;54436.44;5016487;28;20371;-71
2023/04/19 03:49:33;;;;;;;13.63;5.57;;;;;;;-144.73;100.00;54430.28;4983968;28;20085;-72
2023/04/19 03:51:58;;;;;;;24.77;5.93;;;;;;;-144.73;100.00;54440.53;4987089;28;20034;-72
2023/04/19 03:54:23;;;;;;;17.88;5.63;;;;;;;-144.73;100.00;54407.69;4985503;28;20026;-72
2023/04/19 03:56:49;;;;;;;12.35;5.72;;;;;;;-144.73;100.00;54436.44;4998314;28;20042;-72
2023/04/19 03:59:14;;;;;;;10.40;4.85;;;;;;;-144.73;100.00;54456.97;5014575;28;20227;-72
2023/04/19 04:01:40;;;;;;;13.57;5.45;;;;;;;-144.73;100.00;54409.75;5012297;28;20037;-72
2023/04/19 04:04:07;;;;;;;10.50;5.10;;;;;;;-144.73;100.00;54381.00;4988441;28;20026;-71
2023/04/19 04:06:33;;;;;;;14.20;5.85;;;;;;;-144.73;100.00;54440.53;4998462;28;20111;-69
2023/04/19 04:08:59;;;;;;;16.98;6.13;;;;;;;-144.73;100.00;54411.81;4985935;28;20025;-70
2023/04/19 04:11:24;;;;;;;17.02;5.85;;;;;;;-144.73;100.00;54452.84;4987336;28;20030;-72
2023/04/19 04:13:50;;;;;;;12.00;5.43;;;;;;;-144.73;100.00;54399.50;5003543;28;20036;-72
2023/04/19 04:16:15;;;;;;;18.83;6.00;;;;;;;-144.73;100.00;54420.00;4989095;28;20117;-72
2023/04/19 04:18:40;;;;;;;12.98;5.88;;;;;;;-144.73;100.00;54424.13;4997575;28;20025;-72
2023/04/19 04:21:06;;;;;;;17.05;5.75;;;;;;;-144.73;100.00;54426.16;4985539;28;20107;-71
2023/04/19 04:23:32;;;;;;;17.05;6.00;;;;;;;-144.73;100.00;54461.06;4994463;28;20037;-72
2023/04/19 04:26:03;;;;;;;12.55;5.82;;;;;;;-144.73;100.00;54440.53;5021492;28;20473;-72
2023/04/19 04:28:28;;;;;;;16.70;5.53;;;;;;;-144.73;100.00;54420.00;4987248;28;20133;-72
2023/04/19 04:30:56;;;;;;;15.07;5.57;;;;;;;-144.73;100.00;54387.19;5014705;28;20129;-71
2023/04/19 04:33:25;;;;;;;15.98;5.38;;;;;;;-144.73;100.00;54411.81;4995158;28;20029;-72
2023/04/19 04:35:52;;;;;;;11.93;5.10;;;;;;;-144.73;100.00;54417.97;4992678;28;20081;-72
2023/04/19 04:38:18;;;;;;;17.42;6.07;;;;;;;-144.73;100.00;54440.53;5012987;28;20036;-72
2023/04/19 04:40:47;;;;;;;13.48;5.18;;;;;;;-144.73;100.00;54391.28;4988856;28;20030;-72
2023/04/19 04:43:13;;;;;;;13.68;4.80;;;;;;;-144.73;100.00;54424.13;4997403;28;20034;-72
2023/04/19 04:45:38;;;;;;;15.10;4.90;;;;;;;-144.73;100.00;54420.00;5009951;28;20107;-73
2023/04/19 04:48:04;;;;;;;11.55;4.82;;;;;;;-144.73;100.00;54411.81;5026801;28;20033;-71
2023/04/19 04:50:29;;;;;;;16.55;5.55;;;;;;;-144.73;100.00;54395.38;4991040;28;20104;-71
2023/04/19 04:52:55;;;;;;;9.90;5.15;;;;;;;-144.73;100.00;54415.91;4993694;28;20026;-72
2023/04/19 04:55:20;;;;;;;11.45;4.53;;;;;;;-144.73;100.00;54432.31;4984218;28;20118;-71
2023/04/19 04:57:46;;;;;;;8.98;4.97;;;;;;;-144.73;99.04;54383.06;4997980;28;20021;-71
2023/04/19 05:00:11;;;;;;;13.00;4.30;;;;;;;-144.73;97.87;54426.16;4985567;28;20032;-71
2023/04/19 05:02:37;;;;;;;8.23;4.40;;;;;;;-144.73;96.81;54436.44;4999548;28;20029;-71
2023/04/19 05:05:02;;;;;;;15.48;4.88;;;;;;;-144.73;95.63;54422.06;5014898;28;20100;-72
2023/04/19 05:07:28;;;;;;;10.77;4.82;;;;;;;-144.73;95.23;54456.97;4997120;28;20492;-71
2023/04/19 05:09:53;;;;;;;13.23;4.07;;;;;;;-144.73;94.01;54424.13;5003716;28;20040;-72
2023/04/19 05:12:18;;;;;;;14.55;3.95;;;;;;;-144.73;94.07;54407.69;4985800;28;20049;-73
2023/04/19 05:14:44;;;;;;;7.53;4.03;;;;;;;-144.73;93.90;54422.06;5019504;28;20036;-73
2023/04/19 05:17:09;;;;;;;13.98;3.95;;;;;;;-144.73;93.11;54452.84;4986095;28;20037;-72
2023/04/19 05:19:34;;;;;;;12.77;3.95;;;;;;;-144.73;92.31;54465.16;4984944;28;20053;-71
2023/04/19 05:22:00;;;;;;;11.48;3.30;;;;;;;-144.73;91.36;54424.13;4987931;28;20080;-72
2023/04/19 05:24:25;;;;;;;11.95;3.58;;;;;;;-144.73;90.59;54397.44;5003332;28;20025;-72
2023/04/19 05:26:50;;;;;;;8.88;3.38;;;;;;;-144.73;89.56;54448.75;5003230;28;20177;-71
2023/04/19 05:29:16;;;;;;;10.65;3.33;;;;;;;-144.73;89.60;54436.44;4985667;28;20065;-73
2023/04/19 05:31:41;;;;;;;6.90;3.50;;;;;;;-144.73;88.41;54415.91;4984707;28;20072;-72
2023/04/19 05:34:07;;;;;;;7.40;3.60;;;;;;;-144.73;88.65;54395.38;5003874;28;20037;-72
2023/04/19 05:36:32;;;;;;;6.45;2.92;;;;;;;-144.73;87.91;54428.22;5001460;28;20041;-72
2023/04/19 05:38:57;;;;;;;6.00;3.28;;;;;;;-144.73;87.81;54411.81;4986450;28;20054;-71
2023/04/19 05:41:23;;;;;;;8.45;3.75;;;;;;;-144.73;86.55;54393.34;4985170;28;20049;-72
2023/04/19 05:43:48;;;;;;;6.65;3.10;;;;;;;-144.73;86.46;54424.13;5018897;28;20030;-71
2023/04/19 05:46:13;;;;;;;5.72;3.10;;;;;;;-144.73;86.60;54420.00;5003655;28;20385;-72
2023/04/19 05:48:39;;;;;;;9.77;3.10;;;;;;;-144.73;85.33;54436.44;4985579;28;20091;-72
2023/04/19 05:51:04;;;;;;;4.82;2.78;;;;;;;-144.73;85.14;54395.38;5003362;28;20064;-71
2023/04/19 05:53:30;;;;;;;5.57;2.92;;;;;;;-144.73;84.22;54413.84;5002712;28;20532;-71
2023/04/19 05:55:55;;;;;;;10.23;3.20;;;;;;;-144.73;83.95;54448.75;5018367;28;20038;-71
2023/04/19 05:58:22;;;;;;;9.65;3.58;;;;;;;-144.73;83.90;54391.28;4986322;28;20026;-72
2023/04/19 06:00:48;;;;;;;12.05;3.70;;;;;;;-144.73;83.06;54387.19;5015529;28;20041;-72
2023/04/19 06:03:13;;;;;;;6.18;3.53;;;;;;;-144.73;82.76;54436.44;4986622;28;20072;-72
2023/04/19 06:05:39;;;;;;;6.07;2.90;;;;;;;-144.73;81.54;54413.84;4985438;28;20034;-71
2023/04/19 06:08:05;;;;;;;11.10;5.72;;;;;;;-144.73;80.89;54415.91;4989180;28;20032;-71
2023/04/19 06:10:31;;;;;;;10.60;2.90;;;;;;;-144.73;80.25;54407.69;5007248;28;20049;-72
2023/04/19 06:12:57;;;;;;;10.93;2.97;;;;;;;-144.73;79.52;54407.69;4987682;28;20049;-72
2023/04/19 06:15:24;;;;;;;9.23;2.95;;;;;;;-144.73;78.67;54407.69;5004273;28;20162;-74
2023/04/19 06:17:50;;;;;;;13.40;2.20;;;;;;;-144.73;78.71;54420.00;5005525;28;20025;-72
2023/04/19 06:20:16;;;;;;;7.60;2.10;;;;;;;-144.73;77.71;54420.00;4985980;28;20428;-72
2023/04/19 06:22:43;;;;;;;6.20;2.10;;;;;;;-144.73;77.27;54415.91;4987296;28;20030;-72
2023/04/19 06:25:12;;;;;;;1.70;1.33;;;;;;;-144.73;76.27;54436.44;5000361;28;20034;-77
2023/04/19 06:27:37;;;;;;;4.47;1.50;;;;;;;-144.73;75.58;54432.31;4986545;28;20038;-72
2023/04/19 06:30:03;;;;;;;5.63;2.17;;;;;;;-144.73;74.48;54448.75;5006673;28;20045;-71
2023/04/19 06:32:28;;;;;;;6.55;2.05;;;;;;;-144.73;74.05;54420.00;4992786;28;20071;-72
2023/04/19 06:34:54;;;;;;;7.90;1.52;;;;;;;-144.73;72.79;54444.66;4999001;28;20025;-72
2023/04/19 06:37:19;;;;;;;4.68;1.67;;;;;;;-144.73;71.81;54393.34;4990837;28;20113;-72
2023/04/19 06:39:44;;;;;;;3.55;1.25;;;;;;;-144.73;70.45;54436.44;5011108;28;20034;-72
2023/04/19 06:42:11;;;;;;;7.20;1.98;;;;;;;-144.73;70.66;54424.13;5012261;28;20497;-71
2023/04/19 06:44:37;;;;;;;7.95;1.42;;;;;;;-144.73;68.99;54387.19;4991016;28;20027;-73
2023/04/19 06:47:02;;;;;;;4.30;1.77;;;;;;;-144.73;68.90;54407.69;5000770;28;20040;-72
2023/04/19 06:49:28;;;;;;;2.58;1.40;;;;;;;-144.73;68.88;54399.50;4989217;28;20153;-72
2023/04/19 06:51:53;;;;;;;3.35;1.60;;;;;;;-144.73;68.64;54424.13;5006522;28;20038;-72
2023/04/19 06:54:19;;;;;;;2.85;1.40;;;;;;;-144.73;67.07;54374.84;5007718;28;20033;-72
2023/04/19 06:56:46;;;;;;;3.83;1.60;;;;;;;-144.73;67.56;54436.44;4988755;28;20030;-72
2023/04/19 06:59:16;;;;;;;9.63;1.38;;;;;;;-144.73;66.87;54413.84;4988474;28;20030;-71
2023/04/19 07:01:45;;;;;;;9.95;1.40;;;;;;;-144.73;66.39;54417.97;5011384;28;20487;-72
2023/04/19 07:04:11;;;;;;;6.35;1.30;;;;;;;-144.73;65.70;54415.91;5002683;28;20033;-72
2023/04/19 07:06:37;;;;;;;6.88;1.20;;;;;;;-144.73;64.83;54413.84;4988743;28;20034;-72
2023/04/19 07:09:04;;;;;;;2.83;1.33;;;;;;;-144.73;64.40;54411.81;5005147;28;20026;-72
2023/04/19 07:11:30;;;;;;;3.50;1.40;;;;;;;-144.73;64.41;54442.59;5006615;28;20033;-71
2023/04/19 07:13:56;;;;;;;5.25;1.50;;;;;;;-144.73;63.58;54436.44;5006976;28;20030;-69
2023/04/19 07:16:21;;;;;;;3.33;1.17;;;;;;;-144.73;63.40;54395.38;4987795;28;20030;-69
2023/04/19 07:18:46;;;;;;;3.88;0.90;;;;;;;-144.73;63.04;54407.69;4991602;28;20066;-71
2023/04/19 07:21:13;;;;;;;3.00;1.20;;;;;;;-144.73;63.45;54407.69;5003321;28;20030;-71
2023/04/19 07:23:38;;;;;;;3.20;1.48;;;;;;;-144.73;62.83;54438.50;5018578;28;20052;-71
2023/04/19 07:26:04;;;;;;;1.98;1.10;;;;;;;-144.73;62.33;54407.69;4999346;28;20077;-71
2023/04/19 07:28:29;;;;;;;1.95;1.35;;;;;;;-144.73;61.68;54387.19;5001565;28;20029;-70
2023/04/19 07:30:55;;;;;;;7.28;1.38;;;;;;;-144.73;62.02;54350.22;5012323;28;20037;-71
2023/04/19 07:33:22;;;;;;;4.97;1.35;;;;;;;-144.73;61.36;54407.69;4994832;28;20011;-71
2023/04/19 07:35:48;;;;;;;2.80;1.10;;;;;;;-144.73;60.96;54370.75;4991374;28;20035;-69
2023/04/19 07:38:13;;;;;;;7.35;1.10;;;;;;;-144.73;60.23;54411.81;5009050;28;20022;-70
2023/04/19 07:40:39;;;;;;;2.85;1.00;;;;;;;-144.73;59.74;54372.81;4991018;28;20030;-70
2023/04/19 07:43:05;;;;;;;1.80;1.10;;;;;;;-144.73;59.93;54378.97;5023900;28;20088;-71
2023/04/19 07:45:31;;;;;;;7.63;2.70;;;;;;;-144.73;60.13;54407.69;4989348;28;20042;-69
2023/04/19 07:47:57;;;;;;;7.65;1.80;;;;;;;-144.73;59.47;54378.97;5004050;28;20080;-69
2023/04/19 07:50:24;;;;;;;13.43;1.58;;;;;;;-144.73;59.21;54395.38;5003625;28;20050;-69
2023/04/19 07:52:49;;;;;;;1.50;1.13;;;;;;;-144.73;58.61;54381.00;5005960;28;20484;-70
2023/04/19 07:55:29;;;;;;;2.15;1.00;;;;;;;-144.73;59.24;54321.50;5051297;27;20386;-70
2023/04/19 07:57:54;;;;;;;2.45;1.23;;;;;;;-144.73;58.52;54383.06;5039728;28;20102;-70
2023/04/19 08:00:22;;;;;;;1.55;1.10;;;;;;;-144.73;57.95;54428.22;5041029;28;20051;-70
2023/04/19 08:02:48;;;;;;;1.52;1.00;;;;;;;-144.73;56.67;54309.19;5040774;28;20067;-70
2023/04/19 08:05:17;;;;;;;1.90;0.90;;;;;;;-144.73;57.48;54407.69;5041295;28;20057;-69
2023/04/19 08:07:43;;;;;;;5.63;1.50;;;;;;;-144.73;56.56;54383.06;5036139;28;20108;-71
2023/04/19 08:10:09;;;;;;;6.30;1.40;;;;;;;-144.73;56.99;54354.34;5036215;28;20064;-69
2023/04/19 08:12:36;;;;;;;2.38;1.20;;;;;;;-144.73;55.24;54335.88;5038615;28;20052;-69
2023/04/19 08:15:02;;;;;;;2.90;1.00;;;;;;;-144.73;55.70;54378.97;5034372;28;20033;-71
2023/04/19 08:17:27;;;;;;;6.10;1.60;;;;;;;-144.73;55.69;54350.22;5040785;28;20087;-70
2023/04/19 08:19:53;;;;;;;4.50;1.20;;;;;;;-144.73;54.92;54415.91;5035540;28;20045;-70
2023/04/19 08:22:20;;;;;;;2.20;1.35;;;;;;;-144.73;54.69;54374.84;5039058;28;20090;-71
2023/04/19 08:24:48;;;;;;;2.50;1.25;;;;;;;-144.73;54.65;54358.44;5039315;28;20025;-69
2023/04/19 08:27:13;;;;;;;4.43;1.10;;;;;;;-144.73;54.12;54395.38;5041451;28;20025;-70
2023/04/19 08:29:39;;;;;;;1.80;1.20;;;;;;;-144.73;53.62;54348.19;5040730;28;20033;-70
2023/04/19 08:32:05;;;;;;;4.05;1.52;;;;;;;-144.73;52.95;54346.13;5038588;28;20060;-69
2023/04/19 08:34:34;;;;;;;2.15;1.15;;;;;;;-144.73;52.58;54362.53;5039267;28;20022;-70
2023/04/19 08:36:59;;;;;;;1.80;1.17;;;;;;;-144.73;53.06;54333.81;5038706;28;20041;-70
2023/04/19 08:39:25;;;;;;;4.03;1.23;;;;;;;-144.73;52.71;54358.44;5038597;28;20031;-70
2023/04/19 08:41:50;;;;;;;4.50;1.30;;;;;;;-144.73;52.35;54387.19;5039942;28;20037;-70
2023/04/19 08:44:17;;;;;;;3.13;1.35;;;;;;;-144.73;51.21;54370.75;5039212;28;20029;-69
2023/04/19 08:46:43;;;;;;;5.05;1.23;;;;;;;-144.73;51.43;54317.38;5039180;28;20034;-71
2023/04/19 08:49:09;;;;;;;2.58;1.23;;;;;;;-144.73;50.73;54337.91;5038633;28;20036;-69
2023/04/19 08:51:37;;;;;;;5.50;1.30;;;;;;;-144.73;50.80;54378.97;5039020;28;20037;-70
2023/04/19 08:54:06;;;;;;;6.07;1.23;;;;;;;-144.73;49.52;54366.66;5038011;28;20436;-70
2023/04/19 08:56:32;;;;;;;4.03;1.23;;;;;;;-144.73;47.61;54346.13;5038357;28;20112;-70
2023/04/19 08:58:57;;;;;;;2.83;1.30;;;;;;;-144.73;47.55;54354.34;5037496;28;20104;-70
2023/04/19 09:01:23;;;;;;;6.05;1.30;;;;;;;-144.73;47.19;54370.75;5035517;28;20034;-71
2023/04/19 09:03:49;;;;;;;7.45;1.52;;;;;;;-144.73;46.28;54346.13;5038163;28;20018;-71
2023/04/19 09:06:14;;;;;;;2.75;1.38;;;;;;;-144.73;46.49;54366.66;5028918;28;20029;-70
2023/04/19 09:08:40;;;;;;;4.65;1.60;;;;;;;-144.73;44.92;54370.75;5027260;28;20036;-70
2023/04/19 09:11:06;;;;;;;3.47;1.38;;;;;;;-144.73;46.13;54374.84;5024847;28;20045;-70
2023/04/19 09:13:32;;;;;;;5.93;1.52;;;;;;;-144.73;44.38;54317.38;5025622;28;20026;-70
2023/04/19 09:15:59;;;;;;;3.83;1.70;;;;;;;-144.73;42.67;54313.28;5024419;28;20045;-70
2023/04/19 09:18:25;;;;;;;3.33;1.80;;;;;;;-144.73;41.87;54350.22;5025131;28;20033;-70
2023/04/19 09:20:57;;;;;;;4.32;1.40;;;;;;;-144.73;40.74;54325.59;5025458;28;20044;-70
2023/04/19 09:23:27;;;;;;;3.40;1.50;;;;;;;-144.73;39.58;54346.13;5022620;28;20129;-71
2023/04/19 09:26:03;;;;;;;4.18;1.63;;;;;;;-144.73;39.42;54362.53;5023956;28;20041;-69
2023/04/19 09:28:29;;;;;;;4.88;2.25;;;;;;;-144.73;38.14;54362.53;5019813;28;20041;-69
2023/04/19 09:30:56;;;;;;;8.07;1.83;;;;;;;-144.73;38.19;54366.66;5024607;28;20132;-71
2023/04/19 09:33:38;;;;;;;21.17;2.30;;;;;;;-144.73;38.60;54374.84;5040010;28;20029;-70
2023/04/19 09:36:04;;;;;;;3.92;1.88;;;;;;;-144.73;36.54;54321.50;5030473;28;20106;-70
2023/04/19 09:38:30;;;;;;;13.85;3.47;;;;;;;-144.73;36.18;54337.91;5026094;28;20036;-70
2023/04/19 09:41:07;;;;;;;5.43;1.90;;;;;;;-144.73;34.54;54329.72;5023889;28;20037;-71
2023/04/19 09:43:33;;;;;;;5.80;1.80;;;;;;;-144.73;34.17;54296.88;5023512;28;20037;-71
2023/04/19 09:45:58;;;;;;;8.88;2.08;;;;;;;-144.73;33.73;54348.19;5025302;28;20044;-71
2023/04/19 09:48:24;;;;;;;8.63;2.17;;;;;;;-144.73;33.35;54313.28;5019917;28;20022;-70
2023/04/19 09:51:00;;;;;;;4.88;1.88;;;;;;;-144.73;33.35;54317.38;5026490;28;20042;-71
2023/04/19 09:53:27;;;;;;;10.00;2.33;;;;;;;-144.73;31.51;54391.28;5029769;28;20029;-71
2023/04/19 09:55:52;;;;;;;12.20;2.33;;;;;;;-144.73;31.71;54325.59;5023841;28;20037;-71
2023/04/19 09:58:20;;;;;;;12.30;2.30;;;;;;;-144.73;31.59;54362.53;5020937;28;20041;-71
2023/04/19 10:00:46;;;;;;;5.07;2.20;;;;;;;-144.73;31.28;54329.72;5019557;28;20112;-68
2023/04/19 10:03:14;;;;;;;7.10;2.47;;;;;;;-144.73;31.22;54370.75;5024056;28;20029;-70
2023/04/19 10:05:41;;;;;;;5.18;2.10;;;;;;;-144.73;32.19;54358.44;5023576;28;20029;-71
2023/04/19 10:08:07;;;;;;;11.95;2.00;;;;;;;-144.73;31.39;54317.38;5019606;28;20027;-69
2023/04/19 10:10:33;;;;;;;3.55;1.90;;;;;;;-144.73;31.35;54337.91;5021774;28;20095;-69
2023/04/19 10:13:02;;;;;;;8.45;2.35;;;;;;;-144.73;31.00;54317.38;5024347;28;20041;-69
2023/04/19 10:15:29;;;;;;;5.00;1.70;;;;;;;-144.73;30.45;54339.97;5025153;28;20037;-68
2023/04/19 10:17:55;;;;;;;5.22;2.58;;;;;;;-144.73;30.77;54354.34;5023543;28;20022;-70
2023/04/19 10:20:36;;;;;;;7.90;2.22;;;;;;;-144.73;30.02;54337.91;5023469;28;20049;-70
2023/04/19 10:23:05;;;;;;;9.95;1.98;;;;;;;-144.73;29.70;54339.97;5021296;28;20021;-69
2023/04/19 10:25:30;;;;;;;7.50;2.50;;;;;;;-144.73;29.79;54313.28;5025686;28;20048;-70
2023/04/19 10:27:56;;;;;;;9.63;2.10;;;;;;;-144.73;30.20;54342.03;5025778;28;20033;-70
2023/04/19 10:30:23;;;;;;;4.70;2.03;;;;;;;-144.73;30.03;54366.66;5026684;28;20037;-70
2023/04/19 10:33:01;;;;;;;8.52;2.30;;;;;;;-144.73;28.71;54300.97;5026371;28;20021;-71
2023/04/19 10:35:34;;;;;;;7.50;2.15;;;;;;;-144.73;29.11;54313.28;5023099;28;20041;-71
2023/04/19 10:38:05;;;;;;;22.23;2.78;;;;;;;-144.73;28.35;54366.66;5024572;28;20036;-69
2023/04/19 10:40:55;;;;;;;5.63;2.10;;;;;;;-144.73;28.61;54333.81;5028276;28;20037;-70
2023/04/19 10:43:23;;;;;;;5.60;2.38;;;;;;;-144.73;27.84;54337.91;5031091;28;20049;-70
2023/04/19 10:45:51;;;;;;;4.10;2.10;;;;;;;-144.73;28.44;54321.50;5026694;28;20068;-70
2023/04/19 10:48:53;;;;;;;6.30;2.10;;;;;;;-144.73;27.08;54352.28;5027625;28;20072;-71
2023/04/19 10:51:26;;;;;;;5.35;1.92;;;;;;;-144.73;27.52;54333.81;5025437;28;20029;-70
2023/04/19 10:53:54;;;;;;;10.13;2.53;;;;;;;-144.73;26.84;54337.91;5019165;28;20029;-70
2023/04/19 10:56:41;;;;;;;10.60;2.00;;;;;;;-144.73;26.75;54309.19;5021603;28;20041;-71
2023/04/19 10:59:07;;;;;;;7.13;2.33;;;;;;;-144.73;26.96;54333.81;5023784;28;20033;-70
2023/04/19 11:01:44;;;;;;;6.75;2.20;;;;;;;-144.73;27.38;54305.06;5027991;28;20042;-71
2023/04/19 11:04:14;;;;;;;7.78;2.20;;;;;;;-144.73;26.99;54362.53;5022273;28;20029;-70
2023/04/19 11:06:52;;;;;;;11.13;1.90;;;;;;;-144.73;27.14;54319.44;5024598;28;20037;-70
2023/04/19 11:09:24;;;;;;;4.93;2.33;;;;;;;-144.73;26.61;54346.13;5032964;28;20111;-70